Time;durP1;ratioP1;P1;durP2;ratioP2;P2;SDS_P1;SDS_P2;PMS_P1;PMS_P2;Temp;Humidity;BMP_temperature;BMP_pressure;BME280_temperature;BME280_humidity;BME280_pressure;Samples;Min_cycle;Max_cycle;Signal;HPM_P1;HPM_P2
2023/11/21 00:00:55;;;;;;;9.83;6.80;;;;;;;;;;5035633;28;20412;-88
2023/11/21 00:03:23;;;;;;;10.47;6.57;;;;;;;;;;5036466;28;20466;-86
2023/11/21 00:05:49;;;;;;;9.57;6.00;;;;;;;;;;5045871;28;20429;-88
2023/11/21 00:08:15;;;;;;;12.50;6.10;;;;;;;;;;5040177;28;20435;-87
2023/11/21 00:10:41;;;;;;;10.03;6.30;;;;;;;;;;5038695;28;20910;-87
2023/11/21 00:13:07;;;;;;;8.67;5.97;;;;;;;;;;5045724;28;20420;-87
2023/11/21 00:15:33;;;;;;;10.27;6.40;;;;;;;;;;5044641;28;20586;-88
2023/11/21 00:17:59;;;;;;;10.07;6.10;;;;;;;;;;5044985;28;20526;-88
2023/11/21 00:20:25;;;;;;;11.90;6.40;;;;;;;;;;5043102;28;20467;-88
2023/11/21 00:22:51;;;;;;;7.87;4.67;;;;;;;;;;5042969;28;20493;-88
2023/11/21 00:25:17;;;;;;;10.03;6.63;;;;;;;;;;5042717;28;20160;-88
2023/11/21 00:27:43;;;;;;;12.33;6.40;;;;;;;;;;5042610;28;20455;-88
2023/11/21 00:30:09;;;;;;;10.60;6.53;;;;;;;;;;5046739;28;20502;-88
2023/11/21 00:32:38;;;;;;;9.47;4.80;;;;;;;;;;5043783;28;20429;-89
2023/11/21 00:35:04;;;;;;;10.53;5.77;;;;;;;;;;5040054;28;20415;-87
2023/11/21 00:37:32;;;;;;;10.27;5.57;;;;;;;;;;5046615;28;20468;-87
2023/11/21 00:39:58;;;;;;;11.60;5.83;;;;;;;;;;5041218;28;20501;-88
2023/11/21 00:42:23;;;;;;;10.43;5.87;;;;;;;;;;5048834;28;20455;-89
2023/11/21 00:44:50;;;;;;;11.80;6.80;;;;;;;;;;5041742;28;20409;-87
2023/11/21 00:47:15;;;;;;;12.20;6.67;;;;;;;;;;5059436;28;20936;-88
2023/11/21 00:49:42;;;;;;;10.77;6.97;;;;;;;;;;5043037;28;20438;-88
2023/11/21 00:52:07;;;;;;;13.43;7.30;;;;;;;;;;5050541;28;20569;-89
2023/11/21 00:54:33;;;;;;;12.60;7.83;;;;;;;;;;5038906;28;20419;-89
2023/11/21 00:57:00;;;;;;;10.80;6.07;;;;;;;;;;5045975;28;20476;-87
2023/11/21 00:59:25;;;;;;;13.60;7.17;;;;;;;;;;5045762;28;20413;-88
2023/11/21 01:01:52;;;;;;;10.20;6.60;;;;;;;;;;5044251;28;20472;-87
2023/11/21 01:04:18;;;;;;;13.60;7.97;;;;;;;;;;5046189;28;20421;-88
2023/11/21 01:06:45;;;;;;;8.77;7.00;;;;;;;;;;5045658;28;20421;-89
2023/11/21 01:09:11;;;;;;;10.60;7.23;;;;;;;;;;5010765;28;20944;-89
2023/11/21 01:11:37;;;;;;;13.30;7.20;;;;;;;;;;5049219;28;20420;-89
2023/11/21 01:14:04;;;;;;;15.30;8.50;;;;;;;;;;5042988;28;20414;-88
2023/11/21 01:16:32;;;;;;;12.30;8.40;;;;;;;;;;5044431;28;20420;-89
2023/11/21 01:18:58;;;;;;;13.30;7.27;;;;;;;;;;5042082;28;20909;-88
2023/11/21 01:21:25;;;;;;;13.03;7.80;;;;;;;;;;5038421;28;20415;-88
2023/11/21 01:23:50;;;;;;;16.93;10.10;;;;;;;;;;5043338;28;20814;-87
2023/11/21 01:26:16;;;;;;;16.20;9.90;;;;;;;;;;5037113;28;20423;-88
2023/11/21 01:28:42;;;;;;;15.93;9.47;;;;;;;;;;5043654;28;20177;-88
2023/11/21 01:31:08;;;;;;;11.83;8.40;;;;;;;;;;5042651;28;20457;-87
2023/11/21 01:33:34;;;;;;;14.90;9.50;;;;;;;;;;5045428;28;20420;-90
2023/11/21 01:36:00;;;;;;;12.10;8.67;;;;;;;;;;5045396;28;20407;-87
2023/11/21 01:38:27;;;;;;;9.97;7.70;;;;;;;;;;5044955;28;20464;-88
2023/11/21 01:40:52;;;;;;;11.20;7.87;;;;;;;;;;5041442;28;20428;-86
2023/11/21 01:43:18;;;;;;;10.10;6.63;;;;;;;;;;5047234;28;20420;-88
2023/11/21 01:45:47;;;;;;;10.33;7.40;;;;;;;;;;5032973;28;20931;-86
2023/11/21 01:48:14;;;;;;;12.37;7.60;;;;;;;;;;5044359;28;20422;-87
2023/11/21 01:50:40;;;;;;;9.20;7.33;;;;;;;;;;5047301;28;20899;-88
2023/11/21 01:53:06;;;;;;;9.03;6.13;;;;;;;;;;5043671;28;20819;-88
2023/11/21 01:55:33;;;;;;;12.20;6.87;;;;;;;;;;5047964;28;20960;-89
2023/11/21 01:57:59;;;;;;;10.17;7.43;;;;;;;;;;5044760;28;20481;-89
2023/11/21 02:00:27;;;;;;;11.23;5.97;;;;;;;;;;5041992;28;20445;-88
2023/11/21 02:02:54;;;;;;;8.07;5.27;;;;;;;;;;5040846;28;20425;-89
2023/11/21 02:05:21;;;;;;;8.93;6.63;;;;;;;;;;5035417;28;20465;-87
2023/11/21 02:07:52;;;;;;;9.20;6.10;;;;;;;;;;5041559;28;20412;-87
2023/11/21 02:10:22;;;;;;;10.90;5.27;;;;;;;;;;5039771;28;20988;-89
2023/11/21 02:12:50;;;;;;;7.60;5.60;;;;;;;;;;5043524;28;20416;-86
2023/11/21 02:15:19;;;;;;;8.13;5.70;;;;;;;;;;5045349;28;20421;-81
2023/11/21 02:17:47;;;;;;;7.67;5.40;;;;;;;;;;5042846;28;20889;-84
2023/11/21 02:20:15;;;;;;;6.03;4.10;;;;;;;;;;5046440;28;20406;-83
2023/11/21 02:22:41;;;;;;;7.90;4.33;;;;;;;;;;5045845;28;20833;-84
2023/11/21 02:25:07;;;;;;;5.87;4.67;;;;;;;;;;5042545;28;20415;-83
2023/11/21 02:27:33;;;;;;;6.60;4.40;;;;;;;;;;5044544;28;20435;-83
2023/11/21 02:30:00;;;;;;;7.93;3.80;;;;;;;;;;5045148;28;20426;-85
2023/11/21 02:32:26;;;;;;;6.57;5.87;;;;;;;;;;5045759;28;20446;-83
2023/11/21 02:34:55;;;;;;;10.40;5.33;;;;;;;;;;5044235;28;20409;-80
2023/11/21 02:37:21;;;;;;;8.23;5.23;;;;;;;;;;5027422;28;20462;-84
2023/11/21 02:39:47;;;;;;;7.60;4.70;;;;;;;;;;5045504;28;20418;-82
2023/11/21 02:42:13;;;;;;;5.37;4.17;;;;;;;;;;5046023;28;21004;-83
2023/11/21 02:44:39;;;;;;;8.00;4.30;;;;;;;;;;5043798;28;20490;-84
2023/11/21 02:47:05;;;;;;;8.40;5.00;;;;;;;;;;5042318;28;20457;-84
2023/11/21 02:49:31;;;;;;;6.30;4.43;;;;;;;;;;5045787;28;20811;-83
2023/11/21 02:51:57;;;;;;;7.30;4.67;;;;;;;;;;5044989;28;20771;-82
2023/11/21 02:54:23;;;;;;;8.30;4.70;;;;;;;;;;5046757;28;20469;-82
2023/11/21 02:56:49;;;;;;;5.57;3.50;;;;;;;;;;5045238;28;20460;-83
2023/11/21 02:59:15;;;;;;;10.53;5.83;;;;;;;;;;5045320;28;20412;-82
2023/11/21 03:01:41;;;;;;;6.53;4.17;;;;;;;;;;5048576;28;20422;-82
2023/11/21 03:04:07;;;;;;;6.37;4.83;;;;;;;;;;5043884;28;20428;-83
2023/11/21 03:06:33;;;;;;;7.17;5.00;;;;;;;;;;5045620;28;20869;-84
2023/11/21 03:08:59;;;;;;;7.20;5.07;;;;;;;;;;5061477;28;20423;-84
2023/11/21 03:11:25;;;;;;;9.67;6.30;;;;;;;;;;5042086;28;20549;-83
2023/11/21 03:13:51;;;;;;;8.93;4.80;;;;;;;;;;5046730;28;20427;-83
2023/11/21 03:16:19;;;;;;;8.77;4.20;;;;;;;;;;5044646;28;20423;-84
2023/11/21 03:18:45;;;;;;;7.20;4.93;;;;;;;;;;5042337;28;20439;-84
2023/11/21 03:21:10;;;;;;;7.60;6.10;;;;;;;;;;5045225;28;20906;-84
2023/11/21 03:23:37;;;;;;;8.30;5.40;;;;;;;;;;5043461;28;20414;-83
2023/11/21 03:26:03;;;;;;;10.33;5.70;;;;;;;;;;5046373;28;20439;-84
2023/11/21 03:28:30;;;;;;;8.40;5.27;;;;;;;;;;5044840;28;20411;-86
2023/11/21 03:30:56;;;;;;;8.83;5.23;;;;;;;;;;5043216;28;20458;-83
2023/11/21 03:33:22;;;;;;;9.70;5.93;;;;;;;;;;5045943;28;20478;-83
2023/11/21 03:35:49;;;;;;;8.20;5.17;;;;;;;;;;5044458;28;20772;-83
2023/11/21 03:38:15;;;;;;;7.13;5.50;;;;;;;;;;5044309;28;20550;-83
2023/11/21 03:40:41;;;;;;;11.63;5.63;;;;;;;;;;5045932;28;20977;-83
2023/11/21 03:43:07;;;;;;;9.77;6.10;;;;;;;;;;5043050;28;20431;-83
2023/11/21 03:45:33;;;;;;;9.83;6.20;;;;;;;;;;5044741;28;20502;-83
2023/11/21 03:48:01;;;;;;;9.40;5.60;;;;;;;;;;5045879;28;20409;-83
2023/11/21 03:50:27;;;;;;;9.07;5.97;;;;;;;;;;5038239;28;20536;-83
2023/11/21 03:52:53;;;;;;;9.80;5.73;;;;;;;;;;5044351;28;20549;-83
2023/11/21 03:55:19;;;;;;;8.90;4.60;;;;;;;;;;5045744;28;20847;-83
2023/11/21 03:57:45;;;;;;;7.83;5.30;;;;;;;;;;5031642;28;20520;-82
2023/11/21 04:00:11;;;;;;;6.93;4.43;;;;;;;;;;5017720;28;20450;-83
2023/11/21 04:02:37;;;;;;;8.97;5.47;;;;;;;;;;5045246;28;20420;-83
2023/11/21 04:05:03;;;;;;;8.77;5.07;;;;;;;;;;5043486;28;20790;-83
2023/11/21 04:07:29;;;;;;;7.67;6.27;;;;;;;;;;5043416;28;20418;-85
2023/11/21 04:09:55;;;;;;;8.57;6.40;;;;;;;;;;5041158;28;20425;-85
2023/11/21 04:12:21;;;;;;;9.40;5.20;;;;;;;;;;5043460;28;20444;-84
2023/11/21 04:14:46;;;;;;;7.80;4.43;;;;;;;;;;5045149;28;20423;-85
2023/11/21 04:17:12;;;;;;;9.90;5.73;;;;;;;;;;5044290;28;20456;-84
2023/11/21 04:19:38;;;;;;;10.03;6.00;;;;;;;;;;5043498;28;20888;-84
2023/11/21 04:22:04;;;;;;;8.50;5.70;;;;;;;;;;5042056;28;20454;-85
2023/11/21 04:24:30;;;;;;;7.23;5.47;;;;;;;;;;5043238;28;20478;-85
2023/11/21 04:26:56;;;;;;;7.40;5.73;;;;;;;;;;5044690;28;20409;-85
2023/11/21 04:29:22;;;;;;;8.73;5.50;;;;;;;;;;5042947;28;20412;-85
2023/11/21 04:31:49;;;;;;;10.37;5.90;;;;;;;;;;5044522;28;20964;-85
2023/11/21 04:34:15;;;;;;;9.80;6.30;;;;;;;;;;5044213;28;20495;-85
2023/11/21 04:36:40;;;;;;;8.40;5.13;;;;;;;;;;5042514;28;20546;-84
2023/11/21 04:39:06;;;;;;;8.40;6.13;;;;;;;;;;5044660;28;20445;-85
2023/11/21 04:41:32;;;;;;;10.50;6.63;;;;;;;;;;5043894;28;20506;-85
2023/11/21 04:44:00;;;;;;;9.13;5.47;;;;;;;;;;5043103;28;20443;-85
2023/11/21 04:46:26;;;;;;;8.77;6.17;;;;;;;;;;5040402;28;20757;-84
2023/11/21 04:48:52;;;;;;;7.53;5.80;;;;;;;;;;5043831;28;20415;-83
2023/11/21 04:51:18;;;;;;;9.67;5.83;;;;;;;;;;5041077;28;20427;-83
2023/11/21 04:53:44;;;;;;;10.20;6.07;;;;;;;;;;5044526;28;20189;-82
2023/11/21 04:56:10;;;;;;;8.37;5.43;;;;;;;;;;5044067;28;20419;-83
2023/11/21 04:58:36;;;;;;;7.30;4.93;;;;;;;;;;5043863;28;20479;-83
2023/11/21 05:01:03;;;;;;;8.87;5.60;;;;;;;;;;5042454;28;20496;-83
2023/11/21 05:03:29;;;;;;;7.23;4.10;;;;;;;;;;5043928;28;20416;-83
2023/11/21 05:05:55;;;;;;;7.17;5.67;;;;;;;;;;5043819;28;20405;-84
2023/11/21 05:08:22;;;;;;;8.53;4.73;;;;;;;;;;5043397;28;20439;-84
2023/11/21 05:10:49;;;;;;;6.63;4.57;;;;;;;;;;5041578;28;20470;-84
2023/11/21 05:13:17;;;;;;;8.40;5.90;;;;;;;;;;5043592;28;20441;-83
2023/11/21 05:15:43;;;;;;;9.40;6.20;;;;;;;;;;5041759;28;20411;-85
2023/11/21 05:18:08;;;;;;;10.57;5.87;;;;;;;;;;5042539;28;20489;-84
2023/11/21 05:20:34;;;;;;;8.60;5.40;;;;;;;;;;5041723;28;20456;-85
2023/11/21 05:23:00;;;;;;;7.87;5.50;;;;;;;;;;5044043;28;20429;-85
2023/11/21 05:25:26;;;;;;;7.23;5.50;;;;;;;;;;5001273;28;20439;-85
2023/11/21 05:27:53;;;;;;;6.53;4.83;;;;;;;;;;5043052;28;20982;-84
2023/11/21 05:30:19;;;;;;;6.70;5.33;;;;;;;;;;5043724;28;20452;-85
2023/11/21 05:32:46;;;;;;;9.77;6.13;;;;;;;;;;5039322;28;20833;-85
2023/11/21 05:35:15;;;;;;;9.60;4.83;;;;;;;;;;5042975;28;20553;-85
2023/11/21 05:37:41;;;;;;;8.20;5.33;;;;;;;;;;5043497;28;20485;-85
2023/11/21 05:40:08;;;;;;;7.80;5.43;;;;;;;;;;5042221;28;20438;-85
2023/11/21 05:42:35;;;;;;;9.10;5.30;;;;;;;;;;5037468;28;20448;-83
2023/11/21 05:45:10;;;;;;;8.27;5.60;;;;;;;;;;5023318;28;20440;-82
2023/11/21 05:47:43;;;;;;;8.30;5.13;;;;;;;;;;5029648;28;20427;-85
2023/11/21 05:50:11;;;;;;;8.70;4.83;;;;;;;;;;5049275;28;20421;-82
2023/11/21 05:52:38;;;;;;;7.60;5.80;;;;;;;;;;5052642;28;20965;-82
2023/11/21 05:55:07;;;;;;;8.97;6.03;;;;;;;;;;5053154;28;20412;-83
2023/11/21 05:57:33;;;;;;;7.70;5.23;;;;;;;;;;5053035;28;20484;-83
2023/11/21 05:59:59;;;;;;;7.83;5.57;;;;;;;;;;5068431;28;20894;-86
2023/11/21 06:02:25;;;;;;;8.00;6.30;;;;;;;;;;5053026;28;20422;-84
2023/11/21 06:04:51;;;;;;;10.20;6.17;;;;;;;;;;5052967;28;20397;-84
2023/11/21 06:07:17;;;;;;;7.80;5.03;;;;;;;;;;5068192;28;20803;-87
2023/11/21 06:09:44;;;;;;;7.57;4.83;;;;;;;;;;5053107;28;20906;-83
2023/11/21 06:12:10;;;;;;;9.83;5.77;;;;;;;;;;5051341;28;20457;-84
2023/11/21 06:14:36;;;;;;;11.00;5.73;;;;;;;;;;5028169;28;20421;-84
2023/11/21 06:17:02;;;;;;;12.63;7.13;;;;;;;;;;5037826;28;20970;-83
2023/11/21 06:19:28;;;;;;;8.33;5.60;;;;;;;;;;5041507;28;20999;-87
2023/11/21 06:21:55;;;;;;;8.07;6.53;;;;;;;;;;5041769;28;20556;-84
2023/11/21 06:24:21;;;;;;;8.00;5.77;;;;;;;;;;5042672;28;20895;-85
2023/11/21 06:26:48;;;;;;;9.47;6.50;;;;;;;;;;5052695;28;20450;-86
2023/11/21 06:29:14;;;;;;;8.97;6.07;;;;;;;;;;5052828;28;20411;-84
2023/11/21 06:31:40;;;;;;;10.17;7.17;;;;;;;;;;5052576;28;20486;-83
2023/11/21 06:34:08;;;;;;;9.70;6.80;;;;;;;;;;5038212;28;20446;-79
2023/11/21 06:36:34;;;;;;;12.50;7.07;;;;;;;;;;5009622;28;20422;-84
2023/11/21 06:39:00;;;;;;;9.43;6.23;;;;;;;;;;5029554;28;20420;-86
2023/11/21 06:41:26;;;;;;;9.83;6.33;;;;;;;;;;5022666;28;20422;-85
2023/11/21 06:43:53;;;;;;;8.87;6.30;;;;;;;;;;5032196;28;20417;-85
2023/11/21 06:46:19;;;;;;;9.23;6.57;;;;;;;;;;5032030;28;20444;-85
2023/11/21 06:48:46;;;;;;;9.43;6.00;;;;;;;;;;5031939;28;20904;-84
2023/11/21 06:51:13;;;;;;;11.53;6.10;;;;;;;;;;5031465;28;20411;-82
2023/11/21 06:53:38;;;;;;;9.90;7.00;;;;;;;;;;5032039;28;20464;-81
2023/11/21 06:56:05;;;;;;;11.73;6.87;;;;;;;;;;5025262;28;20919;-86
2023/11/21 06:58:31;;;;;;;8.70;6.70;;;;;;;;;;5032720;28;20295;-85
2023/11/21 07:00:58;;;;;;;9.87;6.43;;;;;;;;;;5035261;28;20457;-85
2023/11/21 07:03:25;;;;;;;7.67;5.60;;;;;;;;;;5036339;28;20431;-84
2023/11/21 07:05:51;;;;;;;10.80;6.10;;;;;;;;;;5036176;28;20928;-84
2023/11/21 07:08:17;;;;;;;9.60;7.30;;;;;;;;;;5034621;28;20415;-81
2023/11/21 07:10:42;;;;;;;9.23;6.70;;;;;;;;;;5036077;28;20178;-84
2023/11/21 07:13:12;;;;;;;7.60;6.07;;;;;;;;;;5036011;28;20416;-84
2023/11/21 07:15:38;;;;;;;9.47;7.03;;;;;;;;;;5036060;28;20228;-86
2023/11/21 07:18:04;;;;;;;9.23;6.97;;;;;;;;;;5035953;28;20471;-85
2023/11/21 07:20:30;;;;;;;12.57;8.03;;;;;;;;;;5035934;28;20895;-85
2023/11/21 07:22:57;;;;;;;9.93;6.70;;;;;;;;;;5035381;28;20413;-85
2023/11/21 07:25:23;;;;;;;10.33;7.60;;;;;;;;;;5035920;28;20802;-84
2023/11/21 07:27:49;;;;;;;9.40;6.93;;;;;;;;;;5035877;28;20459;-85
2023/11/21 07:30:15;;;;;;;8.67;6.80;;;;;;;;;;5034347;28;20246;-85
2023/11/21 07:32:41;;;;;;;11.60;7.80;;;;;;;;;;5035773;28;20429;-85
2023/11/21 07:35:08;;;;;;;10.87;7.40;;;;;;;;;;4995533;28;20428;-86
2023/11/21 07:37:34;;;;;;;11.40;7.00;;;;;;;;;;5035316;28;20831;-85
2023/11/21 07:39:59;;;;;;;9.67;7.10;;;;;;;;;;5035633;28;20422;-87
2023/11/21 07:42:26;;;;;;;14.53;7.60;;;;;;;;;;5035667;28;20424;-86
2023/11/21 07:44:52;;;;;;;10.88;8.13;;;;;;;;;;5033838;28;20782;-86
2023/11/21 07:47:18;;;;;;;10.17;6.93;;;;;;;;;;5035561;28;20176;-86
2023/11/21 07:49:44;;;;;;;11.83;8.93;;;;;;;;;;5035431;28;20424;-86
2023/11/21 07:52:10;;;;;;;9.00;6.90;;;;;;;;;;5034984;28;20544;-85
2023/11/21 07:54:37;;;;;;;9.93;6.77;;;;;;;;;;5035152;28;20876;-86
2023/11/21 07:57:04;;;;;;;9.70;7.23;;;;;;;;;;5035332;28;20572;-87
2023/11/21 07:59:30;;;;;;;10.20;7.87;;;;;;;;;;5035380;28;20519;-83
2023/11/21 08:01:56;;;;;;;9.97;7.37;;;;;;;;;;5035243;28;20424;-83
2023/11/21 08:04:22;;;;;;;11.67;7.77;;;;;;;;;;5033847;28;20425;-82
2023/11/21 08:06:49;;;;;;;9.60;7.40;;;;;;;;;;5034755;28;20414;-82
2023/11/21 08:09:17;;;;;;;11.40;7.70;;;;;;;;;;5034792;28;20913;-83
2023/11/21 08:11:43;;;;;;;9.07;7.30;;;;;;;;;;5035045;28;20423;-83
2023/11/21 08:14:09;;;;;;;9.90;7.57;;;;;;;;;;5034885;28;20759;-83
2023/11/21 08:16:34;;;;;;;9.77;7.40;;;;;;;;;;5033604;28;20424;-83
2023/11/21 08:19:01;;;;;;;11.20;7.07;;;;;;;;;;5034836;28;20188;-83
2023/11/21 08:21:28;;;;;;;12.00;9.27;;;;;;;;;;5034349;28;20448;-83
2023/11/21 08:23:55;;;;;;;9.97;7.37;;;;;;;;;;5034471;28;20431;-86
2023/11/21 08:26:21;;;;;;;8.73;5.97;;;;;;;;;;5034674;28;20425;-87
2023/11/21 08:28:47;;;;;;;7.57;5.37;;;;;;;;;;5034784;28;20909;-87
2023/11/21 08:31:13;;;;;;;8.40;6.00;;;;;;;;;;5034744;28;20505;-86
2023/11/21 08:33:39;;;;;;;8.07;6.03;;;;;;;;;;5033285;28;20420;-86
2023/11/21 08:36:09;;;;;;;9.70;6.03;;;;;;;;;;5033920;28;20401;-84
2023/11/21 08:38:37;;;;;;;7.97;5.03;;;;;;;;;;5034112;28;20548;-83
2023/11/21 08:41:07;;;;;;;7.70;5.10;;;;;;;;;;5034181;28;20430;-84
2023/11/21 08:43:34;;;;;;;7.50;4.50;;;;;;;;;;5034501;28;20966;-84
2023/11/21 08:46:00;;;;;;;9.07;4.70;;;;;;;;;;5034321;28;20475;-84
2023/11/21 08:48:28;;;;;;;5.83;5.10;;;;;;;;;;5034332;28;20412;-83
2023/11/21 08:50:54;;;;;;;7.10;4.50;;;;;;;;;;5033862;28;20805;-83
2023/11/21 08:53:20;;;;;;;8.87;4.83;;;;;;;;;;5034197;28;20437;-83
2023/11/21 08:55:46;;;;;;;6.67;4.07;;;;;;;;;;5034155;28;20448;-84
2023/11/21 08:58:12;;;;;;;6.60;4.20;;;;;;;;;;5034092;28;20501;-83
2023/11/21 09:00:38;;;;;;;5.80;3.80;;;;;;;;;;5034076;28;20244;-80
2023/11/21 09:03:08;;;;;;;6.00;4.17;;;;;;;;;;4993313;28;20445;-82
2023/11/21 09:05:34;;;;;;;8.90;4.30;;;;;;;;;;5033723;28;20402;-82
2023/11/21 09:08:00;;;;;;;5.67;3.30;;;;;;;;;;5033779;28;20417;-89
2023/11/21 09:10:26;;;;;;;7.47;3.73;;;;;;;;;;5033998;28;20924;-86
2023/11/21 09:12:52;;;;;;;5.73;3.60;;;;;;;;;;5033756;28;20174;-82
2023/11/21 09:15:18;;;;;;;6.00;3.00;;;;;;;;;;5033807;28;20505;-86
2023/11/21 09:17:44;;;;;;;5.83;3.63;;;;;;;;;;5033732;28;20495;-85
2023/11/21 09:20:10;;;;;;;6.50;3.87;;;;;;;;;;5033859;28;20419;-82
2023/11/21 09:22:36;;;;;;;5.20;2.57;;;;;;;;;;5032734;28;20770;-83
2023/11/21 09:25:05;;;;;;;7.23;3.90;;;;;;;;;;5033623;28;20946;-81
2023/11/21 09:27:31;;;;;;;4.53;3.13;;;;;;;;;;5032418;28;20457;-82
2023/11/21 09:29:58;;;;;;;5.00;3.10;;;;;;;;;;5033433;28;20418;-82
2023/11/21 09:32:24;;;;;;;6.90;3.47;;;;;;;;;;5033572;28;20455;-83
2023/11/21 09:34:50;;;;;;;6.10;3.53;;;;;;;;;;5033491;28;20417;-82
2023/11/21 09:37:16;;;;;;;5.73;3.10;;;;;;;;;;5025300;28;20466;-82
2023/11/21 09:39:42;;;;;;;3.43;2.67;;;;;;;;;;5032928;28;20446;-80
2023/11/21 09:42:11;;;;;;;6.53;2.90;;;;;;;;;;5033344;28;20408;-86
2023/11/21 09:44:44;;;;;;;7.23;2.70;;;;;;;;;;5033216;28;20413;-81
2023/11/21 09:47:15;;;;;;;4.77;2.80;;;;;;;;;;5033266;28;20401;-85
2023/11/21 09:49:41;;;;;;;3.17;2.10;;;;;;;;;;5033284;28;20406;-84
2023/11/21 09:52:09;;;;;;;3.30;1.77;;;;;;;;;;5031636;28;20421;-83
2023/11/21 09:54:35;;;;;;;3.37;1.60;;;;;;;;;;5031353;28;20414;-91
2023/11/21 09:57:02;;;;;;;3.63;2.10;;;;;;;;;;5033728;28;20457;-88
2023/11/21 09:59:35;;;;;;;3.07;1.93;;;;;;;;;;5032869;28;20426;-81
2023/11/21 10:02:02;;;;;;;3.23;2.07;;;;;;;;;;5032812;28;20444;-84
2023/11/21 10:04:28;;;;;;;2.53;1.37;;;;;;;;;;4992390;28;20459;-82
2023/11/21 10:06:55;;;;;;;3.03;2.00;;;;;;;;;;5031900;28;20415;-81
2023/11/21 10:09:24;;;;;;;5.80;2.50;;;;;;;;;;5032409;28;20404;-82
2023/11/21 10:11:53;;;;;;;3.20;2.10;;;;;;;;;;5032794;28;20440;-80
2023/11/21 10:14:20;;;;;;;3.07;2.13;;;;;;;;;;5032372;28;20414;-80
2023/11/21 10:16:47;;;;;;;2.83;1.47;;;;;;;;;;5032193;28;20412;-85
2023/11/21 10:19:13;;;;;;;3.20;1.53;;;;;;;;;;5032493;28;20832;-87
2023/11/21 10:21:39;;;;;;;2.40;1.20;;;;;;;;;;5031989;28;20406;-83
2023/11/21 10:24:06;;;;;;;3.10;1.37;;;;;;;;;;5032758;28;20827;-83
2023/11/21 10:26:32;;;;;;;3.60;2.40;;;;;;;;;;5032878;28;20402;-80
2023/11/21 10:28:59;;;;;;;3.57;1.37;;;;;;;;;;5032579;28;20514;-80
2023/11/21 10:31:28;;;;;;;4.30;1.57;;;;;;;;;;5030800;28;20473;-85
2023/11/21 10:33:54;;;;;;;2.20;1.30;;;;;;;;;;5035344;28;20441;-80
2023/11/21 10:36:28;;;;;;;4.53;2.33;;;;;;;;;;5035925;28;20411;-85
2023/11/21 10:38:54;;;;;;;2.53;1.70;;;;;;;;;;5036219;28;20483;-85
2023/11/21 10:41:21;;;;;;;3.17;2.10;;;;;;;;;;5036742;28;20408;-83
2023/11/21 10:43:47;;;;;;;3.87;1.87;;;;;;;;;;5036619;28;20423;-81
2023/11/21 10:46:15;;;;;;;3.30;1.80;;;;;;;;;;5035252;28;20936;-82
2023/11/21 10:48:44;;;;;;;4.17;1.60;;;;;;;;;;5034598;28;20430;-83
2023/11/21 10:51:10;;;;;;;2.80;2.00;;;;;;;;;;5036029;28;20415;-83
2023/11/21 10:53:42;;;;;;;2.43;1.43;;;;;;;;;;5035429;28;20433;-83
2023/11/21 10:56:11;;;;;;;3.17;1.43;;;;;;;;;;5038003;28;20417;-83
2023/11/21 10:58:38;;;;;;;4.80;1.60;;;;;;;;;;5034731;28;20475;-87
2023/11/21 11:01:06;;;;;;;3.77;1.67;;;;;;;;;;5035161;28;20423;-86
2023/11/21 11:03:33;;;;;;;2.77;1.93;;;;;;;;;;5015978;28;20487;-84
2023/11/21 11:05:59;;;;;;;2.40;1.27;;;;;;;;;;5029127;28;20755;-85
2023/11/21 11:08:27;;;;;;;6.23;1.77;;;;;;;;;;5035344;28;20469;-82
2023/11/21 11:10:53;;;;;;;2.83;1.50;;;;;;;;;;5035237;28;20441;-81
2023/11/21 11:13:19;;;;;;;2.80;1.50;;;;;;;;;;5035840;28;20420;-79
2023/11/21 11:15:48;;;;;;;3.07;1.67;;;;;;;;;;5034700;28;20519;-83
2023/11/21 11:18:14;;;;;;;3.27;1.43;;;;;;;;;;5035696;28;20496;-84
2023/11/21 11:20:41;;;;;;;3.07;1.57;;;;;;;;;;5027930;28;20419;-79
2023/11/21 11:23:25;;;;;;;2.10;1.50;;;;;;;;;;5035497;28;20817;-80
2023/11/21 11:26:07;;;;;;;4.30;2.07;;;;;;;;;;5035391;28;20418;-85
2023/11/21 11:28:47;;;;;;;4.43;1.07;;;;;;;;;;5035628;28;20752;-86
2023/11/21 11:31:24;;;;;;;3.83;1.70;;;;;;;;;;5035520;28;20469;-82
2023/11/21 11:33:53;;;;;;;3.67;1.50;;;;;;;;;;5035507;28;20421;-82
2023/11/21 11:36:43;;;;;;;2.90;2.13;;;;;;;;;;5027616;28;20419;-82
2023/11/21 11:39:27;;;;;;;4.03;2.00;;;;;;;;;;5015703;28;20446;-85
2023/11/21 11:41:53;;;;;;;4.23;1.97;;;;;;;;;;5029950;28;20421;-79
2023/11/21 11:44:38;;;;;;;4.20;2.10;;;;;;;;;;5034851;28;20409;-84
2023/11/21 11:47:03;;;;;;;2.57;1.37;;;;;;;;;;5035399;28;20410;-84
2023/11/21 11:49:30;;;;;;;4.40;1.60;;;;;;;;;;5035157;28;20446;-80
2023/11/21 11:52:14;;;;;;;3.50;2.10;;;;;;;;;;5035020;28;20416;-83
2023/11/21 11:54:40;;;;;;;4.50;2.00;;;;;;;;;;5035245;28;20434;-85
2023/11/21 11:57:06;;;;;;;2.53;1.63;;;;;;;;;;5035192;28;20458;-85
2023/11/21 11:59:52;;;;;;;3.70;1.67;;;;;;;;;;5034948;28;20809;-81
2023/11/21 12:02:22;;;;;;;3.10;1.80;;;;;;;;;;5035130;28;20911;-81
2023/11/21 12:04:48;;;;;;;2.67;1.60;;;;;;;;;;5035128;28;20414;-88
2023/11/21 12:07:14;;;;;;;2.83;1.73;;;;;;;;;;4992281;28;20854;-85
2023/11/21 12:09:40;;;;;;;3.03;1.60;;;;;;;;;;5033634;28;20414;-80
2023/11/21 12:12:06;;;;;;;3.47;2.20;;;;;;;;;;5038410;28;20513;-80
2023/11/21 12:14:32;;;;;;;3.23;2.10;;;;;;;;;;5034952;28;20460;-85
2023/11/21 12:16:58;;;;;;;2.53;1.43;;;;;;;;;;5034846;28;20473;-88
2023/11/21 12:19:24;;;;;;;2.70;1.10;;;;;;;;;;5033074;28;20444;-84
2023/11/21 12:21:51;;;;;;;3.70;1.33;;;;;;;;;;5034563;28;20417;-86
2023/11/21 12:24:17;;;;;;;4.70;1.50;;;;;;;;;;5034603;28;20926;-80
2023/11/21 12:26:44;;;;;;;3.37;1.97;;;;;;;;;;5034474;28;20468;-81
2023/11/21 12:29:10;;;;;;;4.23;1.33;;;;;;;;;;5034448;28;20423;-83
2023/11/21 12:31:36;;;;;;;5.93;2.83;;;;;;;;;;5034290;28;21205;-77
2023/11/21 12:34:02;;;;;;;4.50;1.97;;;;;;;;;;5034530;28;20516;-77
2023/11/21 12:36:30;;;;;;;4.03;1.33;;;;;;;;;;5033794;28;20415;-77
2023/11/21 12:38:56;;;;;;;3.20;1.63;;;;;;;;;;5033602;28;20484;-76
2023/11/21 12:41:21;;;;;;;5.27;2.20;;;;;;;;;;5034517;28;20414;-77
2023/11/21 12:43:47;;;;;;;3.00;2.33;;;;;;;;;;5034483;28;20905;-76
2023/11/21 12:46:13;;;;;;;2.73;1.83;;;;;;;;;;5033019;28;20175;-76
2023/11/21 12:48:43;;;;;;;4.17;2.20;;;;;;;;;;5034389;28;20418;-77
2023/11/21 12:51:11;;;;;;;3.70;2.27;;;;;;;;;;5033982;28;20464;-77
2023/11/21 12:53:40;;;;;;;3.40;1.40;;;;;;;;;;5031820;28;20437;-79
2023/11/21 12:56:09;;;;;;;3.40;2.43;;;;;;;;;;5035437;28;20459;-76
2023/11/21 12:58:35;;;;;;;3.70;1.80;;;;;;;;;;5038465;28;20473;-77
2023/11/21 13:01:03;;;;;;;3.80;2.07;;;;;;;;;;5034114;28;20452;-76
2023/11/21 13:03:29;;;;;;;2.83;1.47;;;;;;;;;;5034058;28;20448;-77
2023/11/21 13:05:57;;;;;;;4.07;2.40;;;;;;;;;;5033695;28;20944;-77
2023/11/21 13:08:23;;;;;;;4.20;2.40;;;;;;;;;;5019335;28;20437;-76
2023/11/21 13:10:50;;;;;;;6.83;2.60;;;;;;;;;;5020012;28;20517;-78
2023/11/21 13:13:17;;;;;;;4.03;2.10;;;;;;;;;;4993142;28;20452;-79
2023/11/21 13:15:49;;;;;;;3.47;1.70;;;;;;;;;;5033666;28;20448;-76
2023/11/21 13:18:16;;;;;;;2.50;1.50;;;;;;;;;;5033679;28;20465;-76
2023/11/21 13:20:46;;;;;;;4.20;2.63;;;;;;;;;;5032921;28;20516;-77
2023/11/21 13:23:12;;;;;;;5.17;1.80;;;;;;;;;;5031836;28;20417;-77
2023/11/21 13:25:41;;;;;;;5.23;2.03;;;;;;;;;;5029590;28;20434;-77
2023/11/21 13:28:07;;;;;;;6.13;2.10;;;;;;;;;;5027617;28;20402;-76
2023/11/21 13:30:34;;;;;;;3.13;1.43;;;;;;;;;;5013357;28;20457;-76
2023/11/21 13:33:01;;;;;;;2.80;1.40;;;;;;;;;;5034550;28;20425;-78
2023/11/21 13:35:32;;;;;;;4.77;1.80;;;;;;;;;;5021441;28;20430;-77
2023/11/21 13:38:03;;;;;;;2.27;1.40;;;;;;;;;;5027705;28;20529;-77
2023/11/21 13:40:29;;;;;;;2.43;1.17;;;;;;;;;;5034970;28;20477;-79
2023/11/21 13:42:58;;;;;;;4.30;1.23;;;;;;;;;;5034404;28;20517;-78
2023/11/21 13:45:25;;;;;;;3.23;1.07;;;;;;;;;;5027713;28;20413;-80
2023/11/21 13:47:54;;;;;;;4.53;2.17;;;;;;;;;;5032722;28;20500;-77
2023/11/21 13:50:26;;;;;;;3.47;1.60;;;;;;;;;;5032384;28;20412;-78
2023/11/21 13:52:53;;;;;;;3.30;1.57;;;;;;;;;;5032848;28;20499;-77
2023/11/21 13:55:20;;;;;;;1.93;1.30;;;;;;;;;;5048131;28;20438;-79
2023/11/21 13:57:49;;;;;;;6.10;2.23;;;;;;;;;;5047750;28;20480;-80
2023/11/21 14:00:41;;;;;;;2.40;1.00;;;;;;;;;;5032672;28;20413;-78
2023/11/21 14:03:05;;;;;;;3.87;1.80;;;;;;;;;;5032683;28;20416;-80
2023/11/21 14:05:34;;;;;;;3.60;2.00;;;;;;;;;;5032059;28;20417;-77
2023/11/21 14:08:02;;;;;;;3.43;1.77;;;;;;;;;;5031077;28;20508;-77
2023/11/21 14:10:39;;;;;;;4.53;2.37;;;;;;;;;;5032598;28;20505;-77
2023/11/21 14:13:05;;;;;;;3.80;1.80;;;;;;;;;;5032624;28;20487;-77
2023/11/21 14:15:33;;;;;;;3.60;2.50;;;;;;;;;;5032548;28;20531;-78
2023/11/21 14:17:59;;;;;;;3.30;2.20;;;;;;;;;;5032401;28;20506;-79
2023/11/21 14:20:25;;;;;;;3.30;1.57;;;;;;;;;;5031027;28;20885;-78
2023/11/21 14:22:52;;;;;;;4.10;1.80;;;;;;;;;;5033721;28;20440;-78
2023/11/21 14:25:17;;;;;;;6.20;1.90;;;;;;;;;;5021530;28;20186;-78
2023/11/21 14:27:43;;;;;;;3.47;2.00;;;;;;;;;;5028005;28;20424;-77
2023/11/21 14:30:12;;;;;;;4.47;1.23;;;;;;;;;;5024858;28;20467;-78
2023/11/21 14:32:38;;;;;;;3.00;1.60;;;;;;;;;;5032275;28;20453;-78
2023/11/21 14:35:05;;;;;;;3.87;1.30;;;;;;;;;;5031672;28;20500;-77
2023/11/21 14:37:31;;;;;;;3.30;1.67;;;;;;;;;;5032080;28;20479;-82
2023/11/21 14:39:57;;;;;;;3.10;1.80;;;;;;;;;;5032389;28;20423;-77